This is the latest recevied weather packets stored in our database for station/object WB5NHL-13. If no packets are shown the sender has not sent any weather packets the latest 10 day(s).
| Time | Temp. | Humidity | Pressure | Rain* | Wind** | Luminosity | Snow |
|---|---|---|---|---|---|---|---|
| 1777734325 | 14.44° C | 99% | 1011.3 hPa | 1.78 mm | - | - | - |
| 1777731918 | 14.44° C | 99% | 1011.8 hPa | 2.79 mm | - | - | - |
| 1777731321 | 14.44° C | 99% | 1012.2 hPa | 2.29 mm | - | - | - |
| 1777730127 | 14.44° C | 99% | 1012.2 hPa | 0.76 mm | - | - | - |
| 1777725923 | 13.89° C | 99% | 1011.5 hPa | 2.79 mm | - | - | - |
| 1777725320 | 13.89° C | 99% | 1011.8 hPa | 2.29 mm | - | - | - |
| 1777721752 | 14.44° C | 99% | 1010.6 hPa | 1.02 mm | - | - | - |
| 1777721138 | - | - | 1010.7 hPa | 1.02 mm | - | - | - |
| 1777720521 | 14.44° C | 99% | 1010.7 hPa | 1.02 mm | - | - | - |
| 1777719922 | 13.89° C | 99% | 1010.7 hPa | 1.02 mm | - | - | - |
| 1777719325 | 13.89° C | 99% | 1010.4 hPa | 1.02 mm | - | - | - |
| 1777716918 | 13.89° C | 99% | 1010.2 hPa | 0.76 mm | - | - | - |
| 1777707925 | - | - | 1011 hPa | 1.78 mm | - | - | - |
| 1777705519 | 15.56° C | 99% | 1010.7 hPa | 1.27 mm | - | - | - |
| 1777703124 | 15.56° C | 99% | 1011.6 hPa | 1.27 mm | - | - | - |
| 1777694718 | 16.67° C | 94% | 1011.7 hPa | 0 mm | - | - | - |
| 1777692925 | 17.22° C | 93% | 1011.9 hPa | 0 mm | - | - | - |
| 1777686360 | 18.33° C | 89% | 1011.8 hPa | 0 mm | - | - | - |
| 1777685743 | - | - | 1011.9 hPa | 0 mm | - | - | - |
| 1777685146 | 18.33° C | 88% | 1011.8 hPa | 0 mm | - | - | - |
| 1777679139 | 20° C | 84% | 1010.5 hPa | 0 mm | - | - | - |
| 1777677925 | 20° C | 82% | 1010.3 hPa | 0 mm | - | - | - |
| 1777673129 | 20.56° C | 79% | 1011.1 hPa | 0 mm | - | - | - |
| 1777667116 | 19.44° C | 80% | 1011.3 hPa | 0 mm | - | - | - |
| 1777665928 | 21.11° C | 77% | 1011.7 hPa | 0 mm | - | - | - |
* Rain latest hour (hover to see other rain measurements)
** Current wind speed in m/s (hover to see current wind gust speed)